createdAt,value
2023-03-20T00:02:24.556Z,11.92
2023-03-20T00:04:52.684Z,11.86
2023-03-20T00:07:21.385Z,11.81
2023-03-20T00:09:49.553Z,11.86
2023-03-20T00:12:26.371Z,11.84
2023-03-20T00:14:54.772Z,11.85
2023-03-20T00:17:23.033Z,11.77
2023-03-20T00:19:51.597Z,11.76
2023-03-20T00:22:19.262Z,11.77
2023-03-20T00:24:47.572Z,11.65
2023-03-20T00:27:18.209Z,11.54
2023-03-20T00:29:46.151Z,11.54
2023-03-20T00:32:15.337Z,11.52
2023-03-20T00:34:43.506Z,11.52
2023-03-20T00:37:11.947Z,11.56
2023-03-20T00:39:40.801Z,11.60
2023-03-20T00:42:20.500Z,11.46
2023-03-20T00:44:54.184Z,11.48
2023-03-20T00:47:27.230Z,11.47
2023-03-20T00:49:56.103Z,11.40
2023-03-20T00:52:24.582Z,11.33
2023-03-20T00:54:52.891Z,11.33
2023-03-20T00:57:27.952Z,11.39
2023-03-20T01:00:21.286Z,11.36
2023-03-20T01:02:50.073Z,11.52
2023-03-20T01:05:18.093Z,11.43
2023-03-20T01:07:46.845Z,11.51
2023-03-20T01:10:15.061Z,11.59
2023-03-20T01:12:43.792Z,11.65
2023-03-20T01:15:32.871Z,11.80
2023-03-20T01:18:00.844Z,11.84
2023-03-20T01:20:30.432Z,11.89
2023-03-20T01:22:58.501Z,11.91
2023-03-20T01:25:26.251Z,11.96
2023-03-20T01:27:55.162Z,11.95
2023-03-20T01:30:28.827Z,11.94
2023-03-20T01:32:57.806Z,12.12
2023-03-20T01:35:28.175Z,12.21
2023-03-20T01:37:58.815Z,12.14
2023-03-20T01:40:40.757Z,12.17
2023-03-20T01:43:17.348Z,12.22
2023-03-20T01:46:11.344Z,12.06
2023-03-20T01:48:53.604Z,12.16
2023-03-20T01:51:26.540Z,12.26
2023-03-20T01:54:09.719Z,12.31
2023-03-20T01:56:52.533Z,12.27
2023-03-20T01:59:32.112Z,12.34
2023-03-20T02:02:01.134Z,12.43
2023-03-20T02:04:34.975Z,12.50
2023-03-20T02:07:14.242Z,12.42
2023-03-20T02:09:48.177Z,12.39
2023-03-20T02:12:22.067Z,12.46
2023-03-20T02:14:53.214Z,12.37
2023-03-20T02:17:42.798Z,12.45
2023-03-20T02:21:10.820Z,12.37
2023-03-20T02:24:02.425Z,12.34
2023-03-20T02:26:46.273Z,12.44
2023-03-20T02:29:50.839Z,12.42
2023-03-20T02:32:51.056Z,12.29
2023-03-20T02:35:42.877Z,12.23
2023-03-20T02:38:48.301Z,12.21
2023-03-20T02:41:55.679Z,12.16
2023-03-20T02:44:43.949Z,12.11
2023-03-20T02:47:19.835Z,12.18
2023-03-20T02:49:48.134Z,12.12
2023-03-20T02:52:27.750Z,12.01
2023-03-20T02:55:16.110Z,11.93
2023-03-20T02:57:56.574Z,11.89
2023-03-20T03:00:39.422Z,11.89
2023-03-20T03:03:11.710Z,11.85
2023-03-20T03:05:50.902Z,11.88
2023-03-20T03:08:22.542Z,11.87
2023-03-20T03:10:57.595Z,11.74
2023-03-20T03:13:30.155Z,11.58
2023-03-20T03:16:10.439Z,11.37
2023-03-20T03:18:41.698Z,11.19
2023-03-20T03:21:13.560Z,11.11
2023-03-20T03:23:49.481Z,11.07
2023-03-20T03:26:39.922Z,11.05
2023-03-20T03:29:15.637Z,10.96
2023-03-20T03:31:46.147Z,10.87
2023-03-20T03:34:18.105Z,10.98
2023-03-20T03:37:17.837Z,11.05
2023-03-20T03:40:19.822Z,11.16
2023-03-20T03:42:59.636Z,11.28
2023-03-20T03:45:42.210Z,11.41
2023-03-20T03:48:24.383Z,11.55
2023-03-20T03:51:02.336Z,11.55
2023-03-20T03:53:35.042Z,11.62
2023-03-20T03:56:07.134Z,11.79
2023-03-20T03:58:57.988Z,11.87
2023-03-20T04:01:27.557Z,11.60
2023-03-20T04:04:01.232Z,11.42
2023-03-20T04:06:29.483Z,11.51
2023-03-20T04:08:57.445Z,11.55
2023-03-20T04:11:29.903Z,11.51
2023-03-20T04:13:57.978Z,11.52
2023-03-20T04:16:27.202Z,11.58
2023-03-20T04:18:56.580Z,11.73
2023-03-20T04:21:25.447Z,11.71
2023-03-20T04:23:53.866Z,11.21
2023-03-20T04:26:23.615Z,11.37
2023-03-20T04:28:52.201Z,11.40
2023-03-20T04:31:39.309Z,11.18
2023-03-20T04:34:30.270Z,11.02
2023-03-20T04:37:03.465Z,11.09
2023-03-20T04:39:44.044Z,10.95
2023-03-20T04:42:13.207Z,10.98
2023-03-20T04:44:41.261Z,11.04
2023-03-20T04:47:09.326Z,11.10
2023-03-20T04:49:41.146Z,11.16
2023-03-20T04:52:09.294Z,11.03
2023-03-20T04:54:41.074Z,11.02
2023-03-20T04:57:08.786Z,10.75
2023-03-20T04:59:38.529Z,10.78
2023-03-20T05:02:06.769Z,10.85
2023-03-20T05:04:35.013Z,10.87
2023-03-20T05:07:03.372Z,10.89
2023-03-20T05:09:39.481Z,10.77
2023-03-20T05:12:13.298Z,10.56
2023-03-20T05:14:58.130Z,10.37
2023-03-20T05:17:47.320Z,10.25
2023-03-20T05:20:15.453Z,10.24
2023-03-20T05:23:06.619Z,10.27
2023-03-20T05:25:47.322Z,10.45
2023-03-20T05:28:38.647Z,10.38
2023-03-20T05:31:27.041Z,10.33
2023-03-20T05:34:14.881Z,10.23
2023-03-20T05:37:01.067Z,10.28
2023-03-20T05:39:47.546Z,10.22
2023-03-20T05:42:39.220Z,10.38
2023-03-20T05:45:20.499Z,10.26
2023-03-20T05:48:12.822Z,10.21
2023-03-20T05:50:40.982Z,10.31
2023-03-20T05:53:11.836Z,10.45
2023-03-20T05:55:58.285Z,10.46
2023-03-20T05:58:42.385Z,10.41
2023-03-20T06:01:42.392Z,10.39
2023-03-20T06:04:22.889Z,10.41
2023-03-20T06:07:10.940Z,10.57
2023-03-20T06:09:42.761Z,10.76
2023-03-20T06:12:14.277Z,10.66
2023-03-20T06:14:42.468Z,10.76
2023-03-20T06:17:10.879Z,10.85
2023-03-20T06:19:38.720Z,10.93
2023-03-20T06:22:07.415Z,11.08
2023-03-20T06:24:36.096Z,11.27
2023-03-20T06:27:05.018Z,11.34
2023-03-20T06:29:33.158Z,11.25
2023-03-20T06:32:14.791Z,11.52
2023-03-20T06:34:43.141Z,11.70
2023-03-20T06:37:11.617Z,11.89
2023-03-20T06:39:39.580Z,12.03
2023-03-20T06:42:15.047Z,11.98
2023-03-20T06:44:44.961Z,12.19
2023-03-20T06:47:31.526Z,12.45
2023-03-20T06:49:59.576Z,12.62
2023-03-20T06:52:27.714Z,12.89
2023-03-20T06:55:15.791Z,13.28
2023-03-20T06:57:45.143Z,13.32
2023-03-20T07:00:14.539Z,13.40
2023-03-20T07:02:43.197Z,13.50
2023-03-20T07:05:16.030Z,13.20
2023-03-20T07:07:43.869Z,13.32
2023-03-20T07:10:12.613Z,13.40
2023-03-20T07:12:44.691Z,13.27
2023-03-20T07:15:12.741Z,13.22
2023-03-20T07:17:40.568Z,13.00
2023-03-20T07:20:10.115Z,12.83
2023-03-20T07:22:38.310Z,13.00
2023-03-20T07:25:26.165Z,13.14
2023-03-20T07:28:00.578Z,12.83
2023-03-20T07:30:30.007Z,12.91
2023-03-20T07:32:58.069Z,12.60
2023-03-20T07:35:29.790Z,12.92
2023-03-20T07:37:58.336Z,12.98
2023-03-20T07:40:27.168Z,13.21
2023-03-20T07:43:02.982Z,13.38
2023-03-20T07:45:49.880Z,13.21
2023-03-20T07:48:20.596Z,13.52
2023-03-20T07:50:48.141Z,13.72
2023-03-20T07:53:15.806Z,14.14
2023-03-20T07:55:45.253Z,14.28
2023-03-20T07:58:12.840Z,14.72
2023-03-20T08:00:41.306Z,15.07
2023-03-20T08:03:09.791Z,14.96
2023-03-20T08:05:38.918Z,15.46
2023-03-20T08:08:07.105Z,15.36
2023-03-20T08:10:35.948Z,15.68
2023-03-20T08:13:03.539Z,15.77
2023-03-20T08:15:31.777Z,15.18
2023-03-20T08:17:59.896Z,15.49
2023-03-20T08:20:28.371Z,15.84
2023-03-20T08:22:56.609Z,15.91
2023-03-20T08:25:24.286Z,16.15
2023-03-20T08:27:51.875Z,16.31
2023-03-20T08:30:19.961Z,16.12
2023-03-20T08:32:47.590Z,15.95
2023-03-20T08:35:31.543Z,16.56
2023-03-20T08:38:00.454Z,16.92
2023-03-20T08:40:29.061Z,16.82
2023-03-20T08:42:56.715Z,16.45
2023-03-20T08:45:26.363Z,16.91
2023-03-20T08:47:55.088Z,17.30
2023-03-20T08:50:23.599Z,16.84
2023-03-20T08:52:51.212Z,17.06
2023-03-20T08:55:20.038Z,16.69
2023-03-20T08:57:48.754Z,16.61
2023-03-20T09:00:17.131Z,17.30
2023-03-20T09:02:45.605Z,17.50
2023-03-20T09:05:13.730Z,18.28
2023-03-20T09:07:41.749Z,17.52
2023-03-20T09:10:10.836Z,17.15
2023-03-20T09:12:39.808Z,16.83
2023-03-20T09:15:08.378Z,17.42
2023-03-20T09:17:36.998Z,18.32
2023-03-20T09:20:06.461Z,19.46
2023-03-20T09:22:34.107Z,19.01
2023-03-20T09:25:01.859Z,20.13
2023-03-20T09:27:30.067Z,20.47
2023-03-20T09:29:58.184Z,20.94
2023-03-20T09:32:25.844Z,20.02
2023-03-20T09:34:53.624Z,20.58
2023-03-20T09:37:22.149Z,21.29
2023-03-20T09:39:50.255Z,21.87
2023-03-20T09:42:39.575Z,22.55
2023-03-20T09:45:22.748Z,22.93
2023-03-20T09:48:19.960Z,22.92
2023-03-20T09:51:22.506Z,22.90
2023-03-20T09:53:59.292Z,22.86
2023-03-20T09:56:29.977Z,23.20
2023-03-20T09:59:04.853Z,23.62
2023-03-20T10:01:43.585Z,23.45
2023-03-20T10:04:12.597Z,22.70
2023-03-20T10:06:40.491Z,23.93
2023-03-20T10:09:24.844Z,23.99
2023-03-20T10:12:02.672Z,23.52
2023-03-20T10:14:58.989Z,22.70
2023-03-20T10:17:52.106Z,21.75
2023-03-20T10:20:34.445Z,21.08
2023-03-20T10:23:25.686Z,22.95
2023-03-20T10:26:03.215Z,22.99
2023-03-20T10:29:03.710Z,22.68
2023-03-20T10:31:34.616Z,22.59
2023-03-20T10:34:20.267Z,22.36
2023-03-20T10:37:23.396Z,23.56
2023-03-20T10:39:54.966Z,24.23
2023-03-20T10:42:31.046Z,24.16
2023-03-20T10:45:23.784Z,23.48
2023-03-20T10:47:52.821Z,22.42
2023-03-20T10:50:29.024Z,22.83
2023-03-20T10:52:58.331Z,23.61
2023-03-20T10:55:34.869Z,23.93
2023-03-20T10:58:11.904Z,24.31
2023-03-20T11:00:40.776Z,24.91
2023-03-20T11:03:20.565Z,24.47
2023-03-20T11:06:08.830Z,25.43
2023-03-20T11:08:41.971Z,24.41
2023-03-20T11:11:10.870Z,25.13
2023-03-20T11:13:45.074Z,25.63
2023-03-20T11:16:36.801Z,25.62
2023-03-20T11:19:07.718Z,27.10
2023-03-20T11:21:45.465Z,27.37
2023-03-20T11:24:40.101Z,26.10
2023-03-20T11:27:13.305Z,25.62
2023-03-20T11:29:45.258Z,26.72
2023-03-20T11:32:31.496Z,25.96
2023-03-20T11:35:23.022Z,26.43
2023-03-20T11:37:53.623Z,26.74
2023-03-20T11:40:35.052Z,24.96
2023-03-20T11:43:10.597Z,25.16
2023-03-20T11:45:44.952Z,24.13
2023-03-20T11:48:25.518Z,24.79
2023-03-20T11:51:09.692Z,25.14
2023-03-20T11:53:48.265Z,24.52
2023-03-20T11:56:29.018Z,24.90
2023-03-20T11:59:18.520Z,25.52
2023-03-20T12:01:53.467Z,26.87
2023-03-20T12:04:31.603Z,26.13
2023-03-20T12:07:04.919Z,26.58
2023-03-20T12:09:41.124Z,27.67
2023-03-20T12:12:34.003Z,27.49
2023-03-20T12:15:10.552Z,28.42
2023-03-20T12:17:47.553Z,27.08
2023-03-20T12:20:25.348Z,25.49
2023-03-20T12:23:14.749Z,24.64
2023-03-20T12:25:52.527Z,25.25
2023-03-20T12:28:20.692Z,27.08
2023-03-20T12:30:58.956Z,27.18
2023-03-20T12:33:38.560Z,27.35
2023-03-20T12:36:15.192Z,27.18
2023-03-20T12:38:44.824Z,28.27
2023-03-20T12:41:15.030Z,27.52
2023-03-20T12:43:49.109Z,27.60
2023-03-20T12:46:35.783Z,27.10
2023-03-20T12:49:41.810Z,28.14
2023-03-20T12:52:32.676Z,27.59
2023-03-20T12:55:16.289Z,27.13
2023-03-20T12:57:47.789Z,26.51
2023-03-20T13:00:32.211Z,26.43
2023-03-20T13:03:22.298Z,27.94
2023-03-20T13:05:58.780Z,28.18
2023-03-20T13:08:43.243Z,28.73
2023-03-20T13:11:31.884Z,26.53
2023-03-20T13:14:14.850Z,28.02
2023-03-20T13:17:02.135Z,25.70
2023-03-20T13:19:41.820Z,26.01
2023-03-20T13:22:31.114Z,24.93
2023-03-20T13:25:18.898Z,23.23
2023-03-20T13:27:57.474Z,26.51
2023-03-20T13:30:41.048Z,28.40
2023-03-20T13:33:34.833Z,27.07
2023-03-20T13:36:14.818Z,25.22
2023-03-20T13:38:52.813Z,26.06
2023-03-20T13:41:24.904Z,27.87
2023-03-20T13:43:58.769Z,29.21
2023-03-20T13:46:36.415Z,29.40
2023-03-20T13:49:17.064Z,29.91
2023-03-20T13:51:55.385Z,31.20
2023-03-20T13:54:38.616Z,32.66
2023-03-20T13:57:32.568Z,32.91
2023-03-20T14:00:25.351Z,28.88
2023-03-20T14:03:33.569Z,27.40
2023-03-20T14:06:02.123Z,29.28
2023-03-20T14:08:38.232Z,31.88
2023-03-20T14:11:21.570Z,30.55
2023-03-20T14:13:58.458Z,29.91
2023-03-20T14:16:29.224Z,27.69
2023-03-20T14:19:25.534Z,26.03
2023-03-20T14:21:57.571Z,25.84
2023-03-20T14:24:28.827Z,25.05
2023-03-20T14:26:58.845Z,24.98
2023-03-20T14:29:29.910Z,24.65
2023-03-20T14:32:13.383Z,24.28
2023-03-20T14:34:59.482Z,23.24
2023-03-20T14:37:30.327Z,25.30
2023-03-20T14:40:08.336Z,27.38
2023-03-20T14:42:48.197Z,28.02
2023-03-20T14:45:26.207Z,29.48
2023-03-20T14:48:11.907Z,26.21
2023-03-20T14:50:51.122Z,24.84
2023-03-20T14:53:27.531Z,26.63
2023-03-20T14:55:56.259Z,27.02
2023-03-20T14:58:51.491Z,28.35
2023-03-20T15:01:22.189Z,29.62
2023-03-20T15:04:10.341Z,27.73
2023-03-20T15:06:50.731Z,29.57
2023-03-20T15:09:23.323Z,30.55
2023-03-20T15:11:52.793Z,31.40
2023-03-20T15:14:28.436Z,29.77
2023-03-20T15:17:02.317Z,28.14
2023-03-20T15:19:31.993Z,28.97
2023-03-20T15:22:00.798Z,27.17
2023-03-20T15:24:30.850Z,28.47
2023-03-20T15:27:01.139Z,27.77
2023-03-20T15:29:32.681Z,27.83
2023-03-20T15:32:14.129Z,27.40
2023-03-20T15:34:44.188Z,28.16
2023-03-20T15:37:16.588Z,28.56
2023-03-20T15:39:51.902Z,26.97
2023-03-20T15:42:22.586Z,26.96
2023-03-20T15:44:53.486Z,25.53
2023-03-20T15:47:24.935Z,25.75
2023-03-20T15:49:56.087Z,26.59
2023-03-20T15:52:39.885Z,24.66
2023-03-20T15:55:15.041Z,23.73
2023-03-20T15:57:47.396Z,23.20
2023-03-20T16:00:17.083Z,21.23
2023-03-20T16:02:48.535Z,21.04
2023-03-20T16:05:18.433Z,21.03
2023-03-20T16:07:47.453Z,21.29
2023-03-20T16:10:19.819Z,20.69
2023-03-20T16:12:54.641Z,20.05
2023-03-20T16:15:27.762Z,19.86
2023-03-20T16:18:01.484Z,19.53
2023-03-20T16:20:33.468Z,19.77
2023-03-20T16:23:05.617Z,19.28
2023-03-20T16:25:35.868Z,19.34
2023-03-20T16:28:07.317Z,18.75
2023-03-20T16:30:36.921Z,18.97
2023-03-20T16:33:16.587Z,18.82
2023-03-20T16:35:48.725Z,18.97
2023-03-20T16:38:31.868Z,19.16
2023-03-20T16:41:31.157Z,18.70
2023-03-20T16:44:00.482Z,18.54
2023-03-20T16:46:28.709Z,18.85
2023-03-20T16:49:19.799Z,18.68
2023-03-20T16:51:49.105Z,18.58
2023-03-20T16:54:21.499Z,18.02
2023-03-20T16:56:54.222Z,18.18
2023-03-20T16:59:24.944Z,18.11
2023-03-20T17:01:54.394Z,17.98
2023-03-20T17:04:27.943Z,17.86
2023-03-20T17:07:01.540Z,17.85
2023-03-20T17:09:31.349Z,17.60
2023-03-20T17:12:19.567Z,17.63
2023-03-20T17:14:47.622Z,17.46
2023-03-20T17:17:19.622Z,17.42
2023-03-20T17:19:53.195Z,17.26
2023-03-20T17:22:24.156Z,17.30
2023-03-20T17:24:52.841Z,17.14
2023-03-20T17:27:21.415Z,17.03
2023-03-20T17:29:49.918Z,16.82
2023-03-20T17:32:20.153Z,16.86
2023-03-20T17:34:48.272Z,16.87
2023-03-20T17:37:29.870Z,16.91
2023-03-20T17:39:57.974Z,16.95
2023-03-20T17:42:31.457Z,16.81
2023-03-20T17:45:01.439Z,16.78
2023-03-20T17:47:30.424Z,16.79
2023-03-20T17:49:58.897Z,16.73
2023-03-20T17:52:29.367Z,16.67
2023-03-20T17:54:57.694Z,16.52
2023-03-20T17:57:28.424Z,16.38
2023-03-20T17:59:56.582Z,16.26
2023-03-20T18:02:25.078Z,16.11
2023-03-20T18:04:53.506Z,15.89
2023-03-20T18:07:21.376Z,15.88
2023-03-20T18:09:49.659Z,15.83
2023-03-20T18:12:18.979Z,15.56
2023-03-20T18:14:47.330Z,15.48
2023-03-20T18:17:16.596Z,15.40
2023-03-20T18:19:45.009Z,15.28
2023-03-20T18:22:13.274Z,15.29
2023-03-20T18:24:44.883Z,15.36
2023-03-20T18:27:13.705Z,15.25
2023-03-20T18:29:42.211Z,15.17
2023-03-20T18:32:10.503Z,15.16
2023-03-20T18:34:38.632Z,15.16
2023-03-20T18:37:09.270Z,15.10
2023-03-20T18:39:37.334Z,15.09
2023-03-20T18:42:04.966Z,14.81
2023-03-20T18:44:33.419Z,14.83
2023-03-20T18:47:01.631Z,14.86
2023-03-20T18:49:31.127Z,14.69
2023-03-20T18:51:58.853Z,14.78
2023-03-20T18:54:27.242Z,14.88
2023-03-20T18:56:59.943Z,14.79
2023-03-20T18:59:28.446Z,14.67
2023-03-20T19:01:56.428Z,14.58
2023-03-20T19:04:24.547Z,14.57
2023-03-20T19:06:53.092Z,14.72
2023-03-20T19:09:21.899Z,14.75
2023-03-20T19:11:50.543Z,14.69
2023-03-20T19:14:19.367Z,14.71
2023-03-20T19:16:47.863Z,14.46
2023-03-20T19:19:16.667Z,14.54
2023-03-20T19:21:44.376Z,14.56
2023-03-20T19:24:12.461Z,14.47
2023-03-20T19:26:40.685Z,14.46
2023-03-20T19:29:13.868Z,14.53
2023-03-20T19:31:42.634Z,14.44
2023-03-20T19:34:36.766Z,14.48
2023-03-20T19:36:59.858Z,14.52
2023-03-20T19:39:27.601Z,14.42
2023-03-20T19:41:55.930Z,14.23
2023-03-20T19:44:24.102Z,14.32
2023-03-20T19:46:52.949Z,14.42
2023-03-20T19:49:30.098Z,14.30
2023-03-20T19:51:59.891Z,14.34
2023-03-20T19:54:28.695Z,14.30
2023-03-20T19:56:56.330Z,14.16
2023-03-20T19:59:25.756Z,14.02
2023-03-20T20:01:54.784Z,13.85
2023-03-20T20:04:23.500Z,13.76
2023-03-20T20:06:55.534Z,13.72
2023-03-20T20:09:28.747Z,13.67
2023-03-20T20:11:58.150Z,13.70
2023-03-20T20:14:26.065Z,13.65
2023-03-20T20:16:55.592Z,13.61
2023-03-20T20:19:23.306Z,13.50
2023-03-20T20:22:19.695Z,13.53
2023-03-20T20:24:41.090Z,13.50
2023-03-20T20:27:18.564Z,13.46
2023-03-20T20:29:49.400Z,13.51
2023-03-20T20:32:19.331Z,13.53
2023-03-20T20:40:27.948Z,13.35
2023-03-20T20:43:01.397Z,13.23
2023-03-20T20:45:34.871Z,13.38
2023-03-20T20:48:06.574Z,13.52
2023-03-20T20:50:39.357Z,13.61
2023-03-20T20:53:08.352Z,13.63
2023-03-20T20:55:36.637Z,13.58
2023-03-20T20:58:05.855Z,13.51
2023-03-20T21:00:49.433Z,13.61
2023-03-20T21:03:20.221Z,13.58
2023-03-20T21:05:48.312Z,13.54
2023-03-20T21:08:18.638Z,13.52
2023-03-20T21:10:47.161Z,13.42
2023-03-20T21:13:15.999Z,13.29
2023-03-20T21:15:45.769Z,13.06
2023-03-20T21:18:14.708Z,12.84
2023-03-20T21:20:42.861Z,12.88
2023-03-20T21:23:11.359Z,12.90
2023-03-20T21:25:41.395Z,12.89
2023-03-20T21:28:11.559Z,13.04
2023-03-20T21:30:56.132Z,13.05
2023-03-20T21:33:35.968Z,12.97
2023-03-20T21:36:04.822Z,12.86
2023-03-20T21:39:14.903Z,12.94
2023-03-20T21:41:21.631Z,12.93
2023-03-20T21:43:50.801Z,12.94
2023-03-20T21:46:58.787Z,13.01
2023-03-20T22:03:29.012Z,13.00
2023-03-20T22:07:13.494Z,12.84
2023-03-20T22:09:45.666Z,12.52
2023-03-20T22:12:48.025Z,12.32
2023-03-20T22:17:59.669Z,12.15
2023-03-20T22:21:03.906Z,12.33
2023-03-20T22:29:32.558Z,12.58
2023-03-20T22:35:23.002Z,12.47
2023-03-20T22:38:00.514Z,12.57
2023-03-20T22:40:50.461Z,12.51
2023-03-20T22:43:07.066Z,12.28
2023-03-20T22:45:42.521Z,12.19
2023-03-20T22:48:15.626Z,12.15
2023-03-20T22:50:43.787Z,12.11
2023-03-20T22:53:11.410Z,12.04
2023-03-20T22:55:41.627Z,12.02
2023-03-20T22:58:12.230Z,12.09
2023-03-20T23:00:41.636Z,12.10
2023-03-20T23:03:22.352Z,12.06
2023-03-20T23:06:25.454Z,11.96
2023-03-20T23:08:58.338Z,11.89
2023-03-20T23:11:28.057Z,11.85
2023-03-20T23:13:56.550Z,12.04
2023-03-20T23:16:25.313Z,12.21
2023-03-20T23:18:53.832Z,12.25
2023-03-20T23:21:21.887Z,12.38
2023-03-20T23:23:49.632Z,12.42
2023-03-20T23:26:22.563Z,12.56
2023-03-20T23:28:53.318Z,12.36
2023-03-20T23:31:23.897Z,12.45
2023-03-20T23:33:55.562Z,12.51
2023-03-20T23:36:35.834Z,12.26
2023-03-20T23:39:08.230Z,12.03
2023-03-20T23:42:04.608Z,12.07
2023-03-20T23:44:25.929Z,12.15
2023-03-20T23:46:55.636Z,12.15
2023-03-20T23:49:24.063Z,12.16
2023-03-20T23:51:51.750Z,12.22
2023-03-20T23:54:19.526Z,12.32
2023-03-20T23:56:47.872Z,12.14
2023-03-20T23:59:21.586Z,12.05
